Time;durP1;ratioP1;P1;durP2;ratioP2;P2;SDS_P1;SDS_P2;PMS_P1;PMS_P2;Temp;Humidity;BMP_temperature;BMP_pressure;BME280_temperature;BME280_humidity;BME280_pressure;Samples;Min_cycle;Max_cycle;Signal;HPM_P1;HPM_P2
2021/12/21 00:01:07;;;;;;;16.13;7.90;;;-1.10;1.00;;;;;;5033396;28;20426;-61
2021/12/21 00:03:35;;;;;;;15.80;7.97;;;-1.10;1.00;;;;;;5033579;28;20445;-59
2021/12/21 00:06:03;;;;;;;14.90;7.80;;;-1.10;1.00;;;;;;5033359;28;20997;-59
2021/12/21 00:08:30;;;;;;;14.27;7.43;;;-1.10;1.00;;;;;;5033308;28;20483;-60
2021/12/21 00:10:58;;;;;;;20.67;7.73;;;-1.10;1.00;;;;;;5033820;28;20442;-60
2021/12/21 00:13:39;;;;;;;12.27;6.80;;;-1.10;1.00;;;;;;5033190;28;20449;-60
2021/12/21 00:16:14;;;;;;;8.67;6.10;;;-1.10;1.00;;;;;;5033465;28;20826;-60
2021/12/21 00:18:49;;;;;;;12.10;6.67;;;-1.20;1.00;;;;;;5033128;28;20472;-59
2021/12/21 00:21:30;;;;;;;12.50;6.10;;;-1.20;1.00;;;;;;5033138;28;20429;-60
2021/12/21 00:24:00;;;;;;;11.70;6.00;;;-1.10;1.00;;;;;;5033251;28;20442;-60
2021/12/21 00:26:27;;;;;;;10.13;6.27;;;-1.10;1.00;;;;;;5033192;28;20484;-60
2021/12/21 00:28:56;;;;;;;12.30;6.73;;;-1.10;1.00;;;;;;5032701;28;20540;-60
2021/12/21 00:31:24;;;;;;;10.30;7.07;;;-1.10;1.00;;;;;;5033179;28;20438;-60
2021/12/21 00:33:53;;;;;;;16.93;9.23;;;-1.10;1.00;;;;;;5033589;28;20506;-59
2021/12/21 00:36:23;;;;;;;12.30;7.63;;;-1.20;1.00;;;;;;5032732;28;20477;-59
2021/12/21 00:38:51;;;;;;;14.70;7.40;;;-1.20;1.00;;;;;;5033224;28;20469;-59
2021/12/21 00:41:18;;;;;;;14.47;7.20;;;-1.20;1.00;;;;;;5033566;28;20441;-60
2021/12/21 00:43:45;;;;;;;13.43;6.93;;;-1.20;1.00;;;;;;5033587;28;20453;-60
2021/12/21 00:46:12;;;;;;;10.80;6.37;;;-1.20;1.00;;;;;;5033597;28;20527;-60
2021/12/21 00:48:47;;;;;;;9.77;5.90;;;-1.20;1.00;;;;;;5033789;28;20503;-59
2021/12/21 00:51:16;;;;;;;9.97;5.70;;;-1.20;1.00;;;;;;5033142;28;20437;-59
2021/12/21 00:53:43;;;;;;;11.77;6.67;;;-1.20;1.00;;;;;;5033438;28;20519;-59
2021/12/21 00:56:10;;;;;;;10.40;6.23;;;-1.20;1.00;;;;;;5033394;28;20484;-59
2021/12/21 00:58:36;;;;;;;10.80;6.73;;;-1.20;1.00;;;;;;5033261;28;20892;-60
2021/12/21 01:01:05;;;;;;;12.30;6.17;;;-1.20;1.00;;;;;;5033432;28;20502;-60
2021/12/21 01:03:31;;;;;;;13.17;5.93;;;-1.30;1.00;;;;;;5032983;28;20453;-60
2021/12/21 01:06:06;;;;;;;11.13;6.83;;;-1.30;1.00;;;;;;5033103;28;20836;-60
2021/12/21 01:08:44;;;;;;;10.67;6.17;;;-1.30;1.00;;;;;;5033150;28;20451;-61
2021/12/21 01:11:15;;;;;;;10.83;5.97;;;-1.40;1.00;;;;;;5032898;28;20438;-59
2021/12/21 01:13:53;;;;;;;13.10;5.97;;;-1.50;1.00;;;;;;5033200;28;20449;-60
2021/12/21 01:16:27;;;;;;;14.83;6.47;;;-1.60;71.50;;;;;;5033161;28;20550;-60
2021/12/21 01:19:06;;;;;;;12.13;6.73;;;-1.60;99.90;;;;;;5032386;28;20534;-60
2021/12/21 01:21:38;;;;;;;14.20;5.90;;;-1.60;99.90;;;;;;5032485;28;20550;-59
2021/12/21 01:24:26;;;;;;;10.57;5.80;;;-1.60;99.90;;;;;;5032985;28;20437;-60
2021/12/21 01:27:04;;;;;;;13.53;6.90;;;-1.70;99.90;;;;;;5032614;28;20485;-59
2021/12/21 01:29:37;;;;;;;15.90;6.77;;;-1.80;99.90;;;;;;5032901;28;20796;-59
2021/12/21 01:32:11;;;;;;;9.87;6.20;;;-1.90;99.90;;;;;;5032325;28;20519;-59
2021/12/21 01:34:48;;;;;;;16.23;6.50;;;-1.90;1.00;;;;;;5033057;28;20445;-59
2021/12/21 01:37:22;;;;;;;12.37;6.50;;;-2.00;10.90;;;;;;5032670;28;20473;-59
2021/12/21 01:40:01;;;;;;;18.50;7.40;;;-2.00;99.90;;;;;;5032718;28;20448;-60
2021/12/21 01:42:42;;;;;;;11.67;6.47;;;-2.10;99.90;;;;;;5032140;28;20444;-60
2021/12/21 01:50:49;;;;;;;17.27;7.87;;;-2.10;1.00;;;;;;5025403;28;20968;-60
2021/12/21 01:53:16;;;;;;;13.00;7.37;;;-2.10;22.90;;;;;;5032053;28;20449;-60
2021/12/21 01:55:44;;;;;;;12.00;7.03;;;-2.00;71.70;;;;;;5032346;28;20526;-59
2021/12/21 01:58:11;;;;;;;15.43;7.70;;;-2.00;99.90;;;;;;5032446;28;20530;-60
2021/12/21 02:00:38;;;;;;;14.90;7.07;;;-2.00;99.90;;;;;;5032174;28;20453;-60
2021/12/21 02:03:06;;;;;;;13.10;7.23;;;-2.00;99.90;;;;;;5032047;28;20503;-60
2021/12/21 02:05:33;;;;;;;18.77;7.60;;;-1.90;99.90;;;;;;5032145;28;20477;-59
2021/12/21 02:08:00;;;;;;;12.03;7.23;;;-1.90;99.90;;;;;;5032312;28;20503;-60
2021/12/21 02:10:27;;;;;;;15.40;7.37;;;-1.90;99.90;;;;;;5032137;28;20433;-60
2021/12/21 02:12:55;;;;;;;13.23;7.47;;;-1.80;99.90;;;;;;5031916;28;20507;-59
2021/12/21 02:15:24;;;;;;;15.10;7.47;;;-1.80;99.90;;;;;;5032240;28;20543;-60
2021/12/21 02:20:50;;;;;;;11.33;6.93;;;-1.90;99.90;;;;;;4995901;28;20483;-60
2021/12/21 02:23:22;;;;;;;9.73;7.10;;;-1.90;99.90;;;;;;5031553;28;20491;-59
2021/12/21 02:26:05;;;;;;;11.87;7.80;;;-1.90;99.90;;;;;;5031851;28;20473;-60
2021/12/21 02:28:46;;;;;;;20.70;8.60;;;-1.90;99.90;;;;;;5032017;28;20433;-60
2021/12/21 02:31:13;;;;;;;15.43;7.57;;;-1.90;83.40;;;;;;5031415;28;20929;-60
2021/12/21 02:33:40;;;;;;;14.67;7.57;;;-2.10;44.90;;;;;;5032117;28;20507;-60
2021/12/21 02:36:08;;;;;;;13.00;7.03;;;-2.20;42.80;;;;;;5031958;28;20469;-60
2021/12/21 02:38:35;;;;;;;17.73;7.30;;;-2.20;5.70;;;;;;5031512;28;20997;-60
2021/12/21 02:41:01;;;;;;;14.10;7.93;;;-2.30;1.00;;;;;;5031991;28;20508;-60
2021/12/21 02:43:28;;;;;;;14.30;7.57;;;-2.40;12.20;;;;;;5031797;28;20867;-62
2021/12/21 02:45:55;;;;;;;13.47;8.10;;;-2.40;19.90;;;;;;5031756;28;20465;-59
2021/12/21 02:48:22;;;;;;;15.37;7.83;;;-2.40;15.90;;;;;;5031852;28;20476;-60
2021/12/21 02:50:49;;;;;;;12.60;7.97;;;-2.30;37.80;;;;;;5031815;28;20452;-60
2021/12/21 02:53:17;;;;;;;18.70;8.73;;;-2.30;23.20;;;;;;5031484;28;20819;-59
2021/12/21 02:55:43;;;;;;;16.27;8.67;;;-2.40;43.70;;;;;;5031714;28;20469;-60
2021/12/21 02:58:10;;;;;;;13.13;8.13;;;-2.40;56.40;;;;;;5031650;28;20539;-59
2021/12/21 03:00:37;;;;;;;14.47;7.30;;;-2.30;65.20;;;;;;5035792;28;20453;-57
2021/12/21 03:03:12;;;;;;;16.50;8.20;;;-2.30;72.50;;;;;;5035244;28;20452;-60
2021/12/21 03:05:39;;;;;;;16.67;8.20;;;-2.40;51.90;;;;;;5035721;28;21050;-60
2021/12/21 03:08:13;;;;;;;12.00;7.67;;;-2.50;68.30;;;;;;5035407;28;20453;-60
2021/12/21 03:10:57;;;;;;;16.47;6.87;;;-2.60;99.90;;;;;;5036222;28;20858;-59
2021/12/21 03:16:08;;;;;;;14.27;7.50;;;-2.50;99.90;;;;;;5037215;28;20791;-60
2021/12/21 03:18:35;;;;;;;14.20;8.07;;;-2.60;99.90;;;;;;5036561;28;20484;-59
2021/12/21 03:21:02;;;;;;;13.00;7.50;;;-2.70;1.00;;;;;;5035362;28;20457;-61
2021/12/21 03:23:28;;;;;;;14.07;7.47;;;-2.70;1.00;;;;;;5034988;28;20461;-58
2021/12/21 03:25:56;;;;;;;14.90;8.20;;;-2.70;1.00;;;;;;5034968;28;20540;-60
2021/12/21 03:28:23;;;;;;;14.47;7.50;;;-2.70;1.00;;;;;;5035091;28;20830;-60
2021/12/21 03:30:50;;;;;;;15.47;9.07;;;-2.70;48.90;;;;;;5034917;28;20452;-60
2021/12/21 03:33:17;;;;;;;16.53;8.70;;;-2.70;95.00;;;;;;5034793;28;20514;-60
2021/12/21 03:35:43;;;;;;;16.30;7.80;;;-2.70;99.90;;;;;;5035018;28;21113;-59
2021/12/21 03:38:10;;;;;;;13.93;8.77;;;-2.60;99.90;;;;;;5034853;28;20477;-60
2021/12/21 03:40:37;;;;;;;16.33;8.83;;;-2.70;99.90;;;;;;5034830;28;20561;-58
2021/12/21 03:43:05;;;;;;;18.17;9.30;;;-2.80;99.90;;;;;;5034406;28;20460;-59
2021/12/21 03:45:36;;;;;;;13.33;8.47;;;-2.80;99.90;;;;;;5034667;28;20476;-59
2021/12/21 03:48:03;;;;;;;16.73;8.70;;;-2.80;99.90;;;;;;5034631;28;20437;-59
2021/12/21 03:50:30;;;;;;;11.73;8.00;;;-2.70;99.90;;;;;;5034708;28;20453;-60
2021/12/21 03:52:56;;;;;;;11.67;7.73;;;-2.70;99.90;;;;;;5034118;28;20453;-59
2021/12/21 03:55:23;;;;;;;18.63;8.87;;;-2.80;99.90;;;;;;5034385;28;20500;-60
2021/12/21 03:57:50;;;;;;;15.67;8.37;;;-2.70;99.90;;;;;;5034489;28;20460;-60
2021/12/21 04:00:19;;;;;;;14.00;8.00;;;-2.80;99.90;;;;;;5034356;28;20499;-59
2021/12/21 04:02:45;;;;;;;16.97;8.37;;;-2.90;99.90;;;;;;5034282;28;20507;-59
2021/12/21 04:05:12;;;;;;;13.53;7.50;;;-2.90;99.90;;;;;;5034322;28;20449;-58
2021/12/21 04:07:39;;;;;;;12.63;7.73;;;-2.90;99.90;;;;;;5034208;28;20499;-58
2021/12/21 04:10:07;;;;;;;14.70;7.97;;;-2.90;99.90;;;;;;5033596;28;20441;-59
2021/12/21 04:12:33;;;;;;;16.47;8.63;;;-3.00;99.90;;;;;;5033613;28;20467;-59
2021/12/21 04:15:03;;;;;;;17.03;8.57;;;-3.10;99.90;;;;;;5034091;28;20827;-58
2021/12/21 04:17:31;;;;;;;18.87;8.80;;;-3.10;99.90;;;;;;5033815;28;20953;-58
2021/12/21 04:19:58;;;;;;;13.77;8.60;;;-3.20;99.90;;;;;;5034120;28;20488;-59
2021/12/21 04:22:25;;;;;;;15.47;8.63;;;-3.20;99.90;;;;;;5033502;28;20449;-60
2021/12/21 04:24:52;;;;;;;14.17;8.77;;;-3.20;1.00;;;;;;5033683;28;20459;-58
2021/12/21 04:27:19;;;;;;;15.60;8.87;;;-3.20;1.00;;;;;;5033564;28;20489;-59
2021/12/21 04:29:45;;;;;;;13.67;8.40;;;-3.20;1.00;;;;;;5033886;28;20510;-59
2021/12/21 04:32:12;;;;;;;14.60;8.03;;;-3.20;1.00;;;;;;5033501;28;20491;-60
2021/12/21 04:34:42;;;;;;;18.30;8.60;;;-3.20;1.00;;;;;;5033786;28;20583;-60
2021/12/21 04:37:09;;;;;;;12.33;8.37;;;-3.30;1.00;;;;;;5033691;28;20578;-59
2021/12/21 04:39:42;;;;;;;13.17;7.80;;;-3.20;1.00;;;;;;5033247;28;20492;-59
2021/12/21 04:42:09;;;;;;;12.67;8.17;;;-3.20;1.00;;;;;;5033327;28;20437;-59
2021/12/21 04:44:35;;;;;;;14.77;8.50;;;-3.20;1.00;;;;;;5033472;28;20454;-59
2021/12/21 04:47:02;;;;;;;13.97;7.80;;;-3.10;1.00;;;;;;5033190;28;20987;-60
2021/12/21 04:49:29;;;;;;;15.67;8.07;;;-3.20;1.00;;;;;;5033216;28;20506;-59
2021/12/21 04:51:57;;;;;;;16.80;9.13;;;-3.30;1.00;;;;;;5032891;28;20950;-60
2021/12/21 04:54:24;;;;;;;12.73;7.60;;;-3.40;1.00;;;;;;5033489;28;20447;-61
2021/12/21 04:56:51;;;;;;;13.90;7.83;;;-3.30;1.00;;;;;;5033291;28;20531;-60
2021/12/21 04:59:18;;;;;;;16.83;8.57;;;-3.30;1.00;;;;;;5033369;28;20496;-58
2021/12/21 05:01:44;;;;;;;15.63;8.77;;;-3.40;1.00;;;;;;5032916;28;20452;-58
2021/12/21 05:04:11;;;;;;;17.63;8.50;;;-3.40;1.00;;;;;;5033069;28;20486;-60
2021/12/21 05:06:38;;;;;;;14.27;8.70;;;-3.40;1.00;;;;;;5032728;28;20520;-59
2021/12/21 05:09:11;;;;;;;14.50;7.57;;;-3.50;1.00;;;;;;5033195;28;20477;-59
2021/12/21 05:11:40;;;;;;;17.77;8.20;;;-3.40;1.00;;;;;;5032680;28;20448;-60
2021/12/21 05:14:09;;;;;;;13.40;8.30;;;-3.30;1.00;;;;;;5033345;28;20470;-61
2021/12/21 05:16:35;;;;;;;12.50;7.93;;;-3.30;1.00;;;;;;5033016;28;20473;-59
2021/12/21 05:19:02;;;;;;;15.83;7.83;;;-3.20;1.00;;;;;;5032842;28;20562;-59
2021/12/21 05:21:29;;;;;;;15.33;7.83;;;-3.20;1.00;;;;;;5031997;28;20452;-60
2021/12/21 05:23:57;;;;;;;13.03;8.17;;;-3.20;1.00;;;;;;5032841;28;20812;-60
2021/12/21 05:26:25;;;;;;;14.00;7.00;;;-3.10;1.00;;;;;;5032498;28;21269;-58
2021/12/21 05:28:52;;;;;;;17.93;9.07;;;-3.30;1.00;;;;;;5032739;28;20441;-59
2021/12/21 05:31:19;;;;;;;14.30;9.07;;;-3.40;1.00;;;;;;5032250;28;20553;-58
2021/12/21 05:33:50;;;;;;;18.13;8.13;;;-3.40;1.00;;;;;;5032469;28;21108;-56
2021/12/21 05:36:17;;;;;;;13.63;7.50;;;-3.40;1.00;;;;;;5032597;28;20566;-59
2021/12/21 05:38:48;;;;;;;14.37;8.07;;;-3.30;1.00;;;;;;5032582;28;20576;-60
2021/12/21 05:41:22;;;;;;;16.70;8.23;;;-3.30;1.00;;;;;;5032101;28;20808;-59
2021/12/21 05:43:51;;;;;;;11.87;7.40;;;-3.20;1.00;;;;;;5032202;28;20434;-57
2021/12/21 05:46:18;;;;;;;14.83;8.23;;;-3.20;1.00;;;;;;5032413;28;20492;-59
2021/12/21 05:48:44;;;;;;;11.37;7.50;;;-3.20;1.00;;;;;;5032467;28;20449;-59
2021/12/21 05:51:11;;;;;;;13.40;7.73;;;-3.30;1.00;;;;;;5032104;28;20452;-59
2021/12/21 05:53:38;;;;;;;14.97;7.37;;;-3.30;1.00;;;;;;5032338;28;20476;-59
2021/12/21 05:56:05;;;;;;;12.67;7.37;;;-3.30;1.00;;;;;;5032086;28;20815;-59
2021/12/21 05:58:31;;;;;;;14.10;8.20;;;-3.40;1.00;;;;;;5032190;28;20434;-60
2021/12/21 06:01:00;;;;;;;13.93;8.13;;;-3.40;1.00;;;;;;5032298;28;20782;-60
2021/12/21 06:03:27;;;;;;;17.13;7.93;;;-3.30;1.00;;;;;;5031900;28;20486;-59
2021/12/21 06:05:53;;;;;;;13.20;7.73;;;-3.30;1.00;;;;;;5032230;28;20472;-58
2021/12/21 06:08:22;;;;;;;14.00;7.90;;;-3.30;1.00;;;;;;5032082;28;20459;-59
2021/12/21 06:10:52;;;;;;;12.47;7.37;;;-3.30;1.00;;;;;;5031976;28;20457;-59
2021/12/21 06:16:29;;;;;;;14.63;8.53;;;-3.20;1.00;;;;;;5109721;27;20586;-59
2021/12/21 06:27:18;;;;;;;12.00;7.40;;;-3.40;99.90;;;;;;5109413;28;20460;-59
2021/12/21 06:29:45;;;;;;;15.43;7.80;;;-3.50;99.90;;;;;;5109408;28;20451;-59
2021/12/21 06:32:14;;;;;;;13.00;8.23;;;-3.50;99.90;;;;;;5109247;28;20453;-55
2021/12/21 06:34:41;;;;;;;11.60;7.43;;;-3.60;99.90;;;;;;5109350;28;21075;-58
2021/12/21 06:37:09;;;;;;;13.70;8.40;;;-3.80;99.90;;;;;;5109411;28;20469;-58
2021/12/21 06:39:36;;;;;;;13.97;8.27;;;-3.90;99.90;;;;;;5109346;28;21107;-58
2021/12/21 06:42:03;;;;;;;11.90;7.57;;;-3.90;99.90;;;;;;5109459;28;20796;-60
2021/12/21 06:44:31;;;;;;;14.37;7.67;;;-3.90;99.90;;;;;;5109100;28;20441;-60
2021/12/21 06:51:08;;;;;;;12.20;8.20;;;-3.90;99.90;;;;;;5109522;28;20470;-59
2021/12/21 06:52:38;;;;;;;14.40;7.57;;;-4.00;1.00;;;;;;5076913;28;20519;-60
2021/12/21 06:55:06;;;;;;;14.00;8.40;;;-3.90;1.00;;;;;;5109070;28;20479;-59
2021/12/21 06:57:34;;;;;;;13.20;7.30;;;-3.90;1.00;;;;;;5108991;28;20454;-61
2021/12/21 07:00:01;;;;;;;11.23;7.70;;;-3.80;1.00;;;;;;5109422;28;20443;-58
2021/12/21 07:02:28;;;;;;;15.80;7.97;;;-3.70;1.00;;;;;;5108828;28;20453;-58
2021/12/21 07:04:57;;;;;;;13.23;8.20;;;-3.60;1.00;;;;;;5109090;28;20502;-58
2021/12/21 07:07:24;;;;;;;14.57;8.13;;;-3.50;1.00;;;;;;5108810;28;20473;-57
2021/12/21 07:09:59;;;;;;;14.33;7.63;;;-3.50;1.00;;;;;;5108857;28;20974;-58
2021/12/21 07:17:48;;;;;;;12.67;7.80;;;-3.50;1.00;;;;;;5108699;28;20479;-59
2021/12/21 07:18:23;;;;;;;13.63;7.17;;;-3.70;1.00;;;;;;5108589;28;20416;-59
2021/12/21 07:20:52;;;;;;;12.30;7.13;;;-3.80;1.00;;;;;;5108946;28;20426;-59
2021/12/21 07:23:19;;;;;;;15.37;7.90;;;-3.90;1.00;;;;;;5108072;28;20572;-58
2021/12/21 07:25:47;;;;;;;16.80;8.07;;;-3.90;1.00;;;;;;5104694;28;20967;-58
2021/12/21 07:28:14;;;;;;;15.33;7.70;;;-3.90;1.00;;;;;;5094874;28;21047;-60
2021/12/21 07:30:40;;;;;;;13.20;7.23;;;-3.90;1.00;;;;;;5094657;28;20504;-59
2021/12/21 07:33:07;;;;;;;12.97;8.00;;;-3.90;1.00;;;;;;5095001;28;20437;-58
2021/12/21 07:35:34;;;;;;;11.40;7.47;;;-3.90;1.00;;;;;;5094816;28;20487;-58
2021/12/21 07:38:04;;;;;;;12.17;7.33;;;-3.80;1.00;;;;;;5095063;28;20451;-60
2021/12/21 07:40:30;;;;;;;12.97;7.60;;;-3.80;1.00;;;;;;5094816;28;20479;-60
2021/12/21 07:42:58;;;;;;;10.87;7.13;;;-3.80;1.00;;;;;;5094630;28;20448;-59
2021/12/21 07:45:25;;;;;;;12.73;7.53;;;-3.60;1.00;;;;;;5094639;28;20460;-61
2021/12/21 07:47:52;;;;;;;11.03;7.10;;;-3.60;1.00;;;;;;5094782;28;20539;-60
2021/12/21 07:50:20;;;;;;;14.13;7.60;;;-3.60;1.00;;;;;;5094871;28;20452;-60
2021/12/21 07:52:47;;;;;;;16.00;7.60;;;-3.60;1.00;;;;;;5094132;28;20446;-59
2021/12/21 07:55:15;;;;;;;13.53;7.27;;;-3.60;1.00;;;;;;5094496;28;20476;-60
2021/12/21 07:57:42;;;;;;;17.43;8.27;;;-3.60;1.00;;;;;;5094551;28;20859;-60
2021/12/21 08:00:10;;;;;;;13.60;7.70;;;-3.60;1.00;;;;;;5094203;28;20945;-60
2021/12/21 08:02:39;;;;;;;16.63;8.20;;;-3.70;1.00;;;;;;5094003;28;20498;-59
2021/12/21 08:05:07;;;;;;;17.40;8.63;;;-3.70;1.00;;;;;;5094197;28;20545;-60
2021/12/21 08:07:39;;;;;;;13.33;8.13;;;-3.70;3.10;;;;;;5071751;28;20456;-58
2021/12/21 08:10:19;;;;;;;14.80;8.13;;;-3.70;12.10;;;;;;5073857;28;20449;-57
2021/12/21 08:12:47;;;;;;;19.93;9.37;;;-3.70;26.00;;;;;;5073364;28;20909;-58
2021/12/21 08:15:14;;;;;;;15.63;9.13;;;-3.60;44.30;;;;;;5073360;28;20537;-58
2021/12/21 08:17:40;;;;;;;17.67;9.70;;;-3.60;64.80;;;;;;5073745;28;20455;-59
2021/12/21 08:20:08;;;;;;;13.30;8.70;;;-3.50;88.50;;;;;;5073688;28;20455;-59
2021/12/21 08:22:34;;;;;;;16.77;8.83;;;-3.50;99.90;;;;;;5073175;28;20448;-58
2021/12/21 08:25:01;;;;;;;17.73;9.40;;;-3.40;99.90;;;;;;5073629;28;20432;-55
2021/12/21 08:27:28;;;;;;;12.13;8.73;;;-3.40;99.90;;;;;;5073535;28;20513;-56
2021/12/21 08:29:55;;;;;;;15.77;8.53;;;-3.40;99.90;;;;;;5073591;28;20445;-59
2021/12/21 08:32:22;;;;;;;18.40;9.23;;;-3.40;99.90;;;;;;5072837;28;20447;-59
2021/12/21 08:34:49;;;;;;;16.93;9.23;;;-3.30;99.90;;;;;;5072976;28;20484;-59
2021/12/21 08:37:15;;;;;;;15.50;9.27;;;-3.30;99.90;;;;;;5072876;28;20920;-59
2021/12/21 08:39:42;;;;;;;19.37;9.10;;;-3.20;99.90;;;;;;5072930;28;20509;-58
2021/12/21 08:42:13;;;;;;;20.10;9.73;;;-3.10;99.90;;;;;;5073007;28;20452;-58
2021/12/21 08:44:40;;;;;;;20.50;9.33;;;-3.10;99.90;;;;;;5073087;28;20479;-57
2021/12/21 08:47:08;;;;;;;16.63;8.47;;;-3.00;99.90;;;;;;5073072;28;20800;-57
2021/12/21 08:49:35;;;;;;;16.70;8.97;;;-2.80;99.90;;;;;;5073124;28;20443;-59
2021/12/21 08:52:01;;;;;;;16.60;8.80;;;-2.80;99.90;;;;;;5072526;28;20500;-60
2021/12/21 08:54:28;;;;;;;16.83;7.90;;;-2.80;99.90;;;;;;5072720;28;20455;-60
2021/12/21 08:56:55;;;;;;;17.53;9.07;;;-2.70;99.90;;;;;;5072875;28;20463;-59
2021/12/21 08:59:21;;;;;;;12.70;8.80;;;-2.70;99.90;;;;;;5073588;28;20491;-60
2021/12/21 09:01:50;;;;;;;14.33;8.90;;;-2.50;99.90;;;;;;5072650;28;20451;-59
2021/12/21 09:04:20;;;;;;;18.40;8.97;;;-2.30;99.90;;;;;;5073136;28;21094;-59
2021/12/21 09:06:46;;;;;;;13.70;7.47;;;-2.10;99.90;;;;;;5072682;28;20566;-59
2021/12/21 09:09:13;;;;;;;16.40;8.07;;;-2.00;99.90;;;;;;5072625;28;20451;-60
2021/12/21 09:11:40;;;;;;;15.03;8.07;;;-2.00;99.90;;;;;;5078883;28;20447;-58
2021/12/21 09:14:06;;;;;;;13.43;7.57;;;-2.00;61.60;;;;;;5092632;28;20511;-58
2021/12/21 09:16:33;;;;;;;19.77;7.83;;;-2.00;1.00;;;;;;5092564;28;20572;-59
2021/12/21 09:19:01;;;;;;;11.40;7.13;;;-1.90;1.00;;;;;;5092670;28;20503;-59
2021/12/21 09:21:30;;;;;;;18.17;8.20;;;-1.90;99.90;;;;;;5091996;28;20454;-59
2021/12/21 09:23:57;;;;;;;13.67;7.17;;;-1.80;99.90;;;;;;5092678;28;20474;-59
2021/12/21 09:26:24;;;;;;;12.07;7.93;;;-1.70;99.90;;;;;;5092539;28;20458;-58
2021/12/21 09:28:50;;;;;;;20.87;7.53;;;-1.70;99.90;;;;;;5092239;28;20500;-59
2021/12/21 09:31:18;;;;;;;12.97;7.07;;;-1.60;99.90;;;;;;5091182;28;20503;-60
2021/12/21 09:33:44;;;;;;;18.00;7.00;;;-1.50;99.90;;;;;;5092623;28;20473;-60
2021/12/21 09:36:11;;;;;;;13.73;6.53;;;-1.50;99.90;;;;;;5092010;28;20543;-60
2021/12/21 09:38:39;;;;;;;15.37;6.67;;;-1.40;99.90;;;;;;5091328;28;20451;-60
2021/12/21 09:41:06;;;;;;;10.90;5.77;;;-1.30;98.10;;;;;;5091429;28;20443;-59
2021/12/21 09:43:33;;;;;;;9.47;6.37;;;-1.30;56.90;;;;;;5091140;28;20443;-61
2021/12/21 09:46:00;;;;;;;10.03;6.47;;;-1.20;1.00;;;;;;5091862;28;20462;-61
2021/12/21 09:48:28;;;;;;;10.73;6.53;;;-1.10;1.00;;;;;;5091574;28;20840;-60
2021/12/21 09:50:55;;;;;;;8.90;5.20;;;-1.10;99.90;;;;;;5091525;28;20461;-59
2021/12/21 09:53:22;;;;;;;9.60;5.67;;;-1.00;99.90;;;;;;5091504;28;21016;-59
2021/12/21 09:55:50;;;;;;;8.63;5.50;;;-0.90;99.90;;;;;;5091866;28;20486;-59
2021/12/21 09:58:17;;;;;;;11.33;5.60;;;-0.80;99.90;;;;;;5092046;28;20475;-59
2021/12/21 10:00:45;;;;;;;10.13;6.27;;;-0.70;99.90;;;;;;5091792;28;20443;-59
2021/12/21 10:03:12;;;;;;;6.80;5.03;;;-0.60;24.20;;;;;;5091683;28;20859;-58
2021/12/21 10:05:41;;;;;;;8.03;4.80;;;-0.60;1.00;;;;;;5091557;28;20499;-59
2021/12/21 10:08:10;;;;;;;9.67;5.00;;;-0.50;1.00;;;;;;5091930;28;20523;-60
2021/12/21 10:10:40;;;;;;;7.50;4.80;;;-0.40;1.00;;;;;;5091631;28;20439;-60
2021/12/21 10:13:10;;;;;;;9.43;5.80;;;-0.30;1.00;;;;;;5091585;28;20451;-58
2021/12/21 10:15:43;;;;;;;10.53;5.00;;;-0.20;99.90;;;;;;5091193;28;21178;-59
2021/12/21 10:18:10;;;;;;;7.93;5.47;;;-0.10;99.90;;;;;;5091973;28;20465;-60
2021/12/21 10:20:40;;;;;;;14.63;5.43;;;-0.10;99.90;;;;;;5090967;28;20931;-59
2021/12/21 10:23:16;;;;;;;8.00;4.67;;;0.00;73.90;;;;;;5091313;28;20525;-58
2021/12/21 10:25:46;;;;;;;9.03;4.93;;;0.00;99.90;;;;;;5091724;28;20470;-59
2021/12/21 10:28:26;;;;;;;11.20;6.43;;;0.20;99.90;;;;;;5091715;28;20440;-59
2021/12/21 10:30:54;;;;;;;11.63;6.30;;;0.40;99.90;;;;;;5091806;28;20826;-59
2021/12/21 10:33:23;;;;;;;9.47;6.03;;;0.50;99.90;;;;;;5091181;28;20458;-61
2021/12/21 10:35:51;;;;;;;9.13;5.93;;;0.60;99.90;;;;;;5091099;28;20996;-60
2021/12/21 10:38:29;;;;;;;9.03;5.90;;;0.70;88.30;;;;;;5091744;28;20476;-60
2021/12/21 10:41:00;;;;;;;10.53;5.90;;;0.90;1.00;;;;;;5090946;28;20457;-59
2021/12/21 10:43:29;;;;;;;8.03;5.40;;;1.00;1.00;;;;;;5091385;28;20435;-59
2021/12/21 10:45:56;;;;;;;8.00;4.83;;;1.00;99.90;;;;;;5091153;28;20499;-60
2021/12/21 10:48:23;;;;;;;9.67;5.57;;;1.10;99.90;;;;;;5091461;28;20930;-60
2021/12/21 10:50:51;;;;;;;9.43;4.63;;;1.20;99.90;;;;;;5091205;28;20503;-59
2021/12/21 10:53:19;;;;;;;10.03;5.50;;;1.30;91.10;;;;;;5091612;28;20448;-59
2021/12/21 10:55:47;;;;;;;9.07;4.90;;;1.30;99.90;;;;;;5091378;28;20489;-58
2021/12/21 10:58:16;;;;;;;8.97;5.17;;;1.30;99.90;;;;;;5090712;28;20948;-59
2021/12/21 11:00:47;;;;;;;10.07;5.43;;;1.40;63.80;;;;;;5091396;28;20853;-61
2021/12/21 11:03:17;;;;;;;6.67;4.70;;;1.40;1.00;;;;;;5094940;28;20486;-59
2021/12/21 11:05:45;;;;;;;6.10;4.70;;;1.50;1.00;;;;;;5095233;28;20473;-62
2021/12/21 11:08:24;;;;;;;6.63;4.90;;;1.40;86.60;;;;;;5095019;28;20452;-62
2021/12/21 11:10:56;;;;;;;8.37;5.47;;;1.30;1.00;;;;;;5094670;28;20444;-61
2021/12/21 11:13:22;;;;;;;7.77;4.37;;;1.30;10.90;;;;;;5094989;28;20437;-61
2021/12/21 11:15:53;;;;;;;11.03;5.47;;;1.50;99.90;;;;;;5093975;28;20489;-62
2021/12/21 11:18:21;;;;;;;6.17;4.17;;;1.60;38.60;;;;;;5085143;28;20481;-62
2021/12/21 11:20:49;;;;;;;7.23;5.40;;;1.60;1.00;;;;;;5107529;28;20453;-62
2021/12/21 11:23:17;;;;;;;9.37;5.00;;;1.70;1.00;;;;;;5114676;28;20497;-58
2021/12/21 11:25:47;;;;;;;12.13;5.33;;;1.60;99.90;;;;;;5115004;27;20518;-60
2021/12/21 11:28:17;;;;;;;8.87;5.03;;;1.60;1.00;;;;;;5115220;28;20523;-61
2021/12/21 11:30:44;;;;;;;9.50;5.20;;;1.70;1.00;;;;;;5114981;28;20500;-60
2021/12/21 11:33:16;;;;;;;9.37;4.90;;;1.70;1.00;;;;;;5114567;28;20449;-58
2021/12/21 11:38:29;;;;;;;7.80;4.77;;;1.70;1.00;;;;;;5114573;28;20458;-60
2021/12/21 11:40:56;;;;;;;8.93;5.37;;;1.70;1.00;;;;;;5113917;28;20878;-59
2021/12/21 11:43:31;;;;;;;9.23;4.90;;;1.70;99.90;;;;;;5113755;28;20930;-59
2021/12/21 11:46:01;;;;;;;6.80;4.73;;;1.80;1.00;;;;;;5114485;28;20472;-59
2021/12/21 11:48:36;;;;;;;8.77;5.67;;;1.80;99.90;;;;;;5114553;28;20524;-59
2021/12/21 11:51:06;;;;;;;14.17;5.97;;;1.90;99.90;;;;;;5114471;28;20421;-61
2021/12/21 11:53:33;;;;;;;12.73;5.90;;;1.90;99.90;;;;;;5114508;28;20430;-61
2021/12/21 11:56:01;;;;;;;10.00;5.50;;;1.90;99.90;;;;;;5114461;28;20489;-62
2021/12/21 11:58:32;;;;;;;9.63;5.90;;;2.00;99.90;;;;;;5114707;28;20831;-60
2021/12/21 12:01:05;;;;;;;8.80;5.50;;;2.10;99.90;;;;;;5113617;28;20493;-61
2021/12/21 12:03:37;;;;;;;10.60;5.97;;;2.20;99.90;;;;;;5114581;28;20429;-61
2021/12/21 12:06:05;;;;;;;10.57;6.33;;;2.20;70.40;;;;;;5114254;28;20495;-61
2021/12/21 12:08:42;;;;;;;11.90;6.27;;;2.30;1.00;;;;;;5114684;28;20990;-60
2021/12/21 12:11:20;;;;;;;16.67;9.30;;;2.30;1.00;;;;;;5113731;28;20457;-62
2021/12/21 12:13:47;;;;;;;8.80;5.47;;;2.30;99.90;;;;;;5113638;28;20772;-59
2021/12/21 12:16:15;;;;;;;14.67;8.23;;;2.40;1.00;;;;;;5113942;28;20492;-60
2021/12/21 12:18:45;;;;;;;12.63;8.53;;;2.40;1.00;;;;;;5096306;28;20447;-59
2021/12/21 12:21:18;;;;;;;15.23;9.03;;;2.40;28.90;;;;;;5091142;28;20496;-60
2021/12/21 12:23:51;;;;;;;16.80;9.53;;;2.40;99.90;;;;;;5093122;28;20435;-59
2021/12/21 12:26:28;;;;;;;16.20;9.23;;;2.30;99.90;;;;;;5093179;28;20467;-59
2021/12/21 12:28:57;;;;;;;20.70;10.37;;;2.30;99.90;;;;;;5082225;28;20446;-58
2021/12/21 12:31:32;;;;;;;15.20;9.57;;;2.20;99.90;;;;;;5093349;28;20434;-56
2021/12/21 12:34:00;;;;;;;12.93;8.67;;;2.20;1.00;;;;;;5093508;28;20846;-57
2021/12/21 12:36:47;;;;;;;11.23;8.10;;;2.30;99.90;;;;;;5093295;28;20490;-58
2021/12/21 12:39:28;;;;;;;19.40;9.43;;;2.30;99.90;;;;;;5094045;28;20430;-62
2021/12/21 12:42:00;;;;;;;21.17;9.37;;;2.40;99.90;;;;;;5093583;28;20427;-62
2021/12/21 12:44:27;;;;;;;16.87;9.10;;;2.80;99.90;;;;;;5093664;28;20496;-63
2021/12/21 12:46:57;;;;;;;16.30;9.10;;;3.40;99.90;;;;;;5092900;28;20527;-62
2021/12/21 12:49:28;;;;;;;16.33;8.83;;;3.60;99.90;;;;;;5092918;28;20844;-59
2021/12/21 12:52:11;;;;;;;13.10;8.93;;;3.50;99.90;;;;;;5093001;28;20189;-59
2021/12/21 12:54:47;;;;;;;18.93;9.63;;;3.10;99.90;;;;;;5093307;28;20480;-63
2021/12/21 12:57:25;;;;;;;10.50;5.90;;;2.90;99.90;;;;;;5092645;28;20554;-60
2021/12/21 12:59:54;;;;;;;10.47;8.17;;;2.60;1.00;;;;;;5090861;28;20446;-61
2021/12/21 13:02:20;;;;;;;11.10;7.67;;;2.50;1.00;;;;;;5092734;28;20450;-62
2021/12/21 13:04:49;;;;;;;11.30;7.33;;;2.40;10.70;;;;;;5092728;28;20453;-61
2021/12/21 13:07:24;;;;;;;9.33;6.57;;;2.50;60.50;;;;;;5092621;28;20470;-61
2021/12/21 13:09:51;;;;;;;10.63;7.00;;;2.40;1.00;;;;;;5092234;28;20942;-57
2021/12/21 13:12:17;;;;;;;13.67;8.37;;;2.50;1.00;;;;;;5092523;28;20450;-54
2021/12/21 13:14:53;;;;;;;14.23;8.67;;;2.40;1.00;;;;;;5092514;28;20462;-61
2021/12/21 13:17:20;;;;;;;16.43;9.13;;;2.50;7.50;;;;;;5092514;28;20508;-58
2021/12/21 13:19:48;;;;;;;14.70;7.77;;;2.50;41.80;;;;;;5092452;28;20450;-57
2021/12/21 13:22:14;;;;;;;15.30;8.40;;;2.40;1.00;;;;;;5091937;28;21003;-58
2021/12/21 13:24:48;;;;;;;18.03;9.73;;;2.40;99.90;;;;;;5092340;28;20450;-58
2021/12/21 13:27:15;;;;;;;14.57;8.63;;;2.40;99.70;;;;;;5092325;28;20985;-58